Saturday, May 26, 2018, 2:19 AM EDT
Back to Local

KMPV, Knapp State Airport

Location: Barre, VT, United States Lat: 44.2
Local Time: 2:19 AM EDT ( 6:19 GMT) Lon: -72.567
Time Zone: US/Eastern Elev: 1164 ft

Show me the last for .
Show Decoded

2018-05-26 01:51 METAR KMPV 260551Z AUTO 26006KT 10SM OVC050 17/15 A2976 RMK AO2 SLP075 60000
                 T01670150 10228 20161 56013 =
2018-05-26 00:51 METAR KMPV 260451Z AUTO 18003KT 10SM OVC055 17/16 A2978 RMK AO2 SLP078 T01670156
                 402670078 =
2018-05-25 23:51 METAR KMPV 260351Z AUTO 00000KT 10SM OVC060 17/16 A2979 RMK AO2 RAE13B35E44
                 SLP082 P0000 T01720156 =
2018-05-25 22:51 METAR KMPV 260251Z AUTO 33005KT 10SM -RA OVC065 18/15 A2980 RMK AO2 RAB10 SLP087
                 P0000 60000 T01780150 56003 =
2018-05-25 21:51 METAR KMPV 260151Z AUTO 00000KT 10SM SCT070 BKN110 19/14 A2980 RMK AO2 SLP087
                 T01890139 =
2018-05-25 20:51 METAR KMPV 260051Z AUTO 28004KT 10SM BKN070 BKN080 OVC110 20/14 A2980 RMK AO2
                 RAB2359E12 SLP088 P0000 T02000139 =
2018-05-25 19:51 METAR KMPV 252351Z AUTO 25012G21KT 10SM OVC050 23/13 A2981 RMK AO2 SLP090
                 T02280128 10250 20228 53006 =
2018-05-25 18:51 METAR KMPV 252251Z AUTO VRB05KT 10SM OVC060 23/13 A2979 RMK AO2 SLP081 T02330128
                 =
2018-05-25 17:51 METAR KMPV 252151Z AUTO 27008KT 10SM OVC065 24/12 A2978 RMK AO2 SLP080 T02390122
                 =
2018-05-25 16:51 METAR KMPV 252051Z AUTO 27009G15KT 10SM OVC060 23/12 A2979 RMK AO2 SLP084
                 T02330122 56010 =
2018-05-25 15:51 METAR KMPV 251951Z AUTO 23005KT 10SM OVC065 23/11 A2980 RMK AO2 SLP087 T02330111
                 =
2018-05-25 14:51 METAR KMPV 251851Z AUTO 25008KT 220V290 10SM OVC070 24/11 A2981 RMK AO2 SLP092
                 T02440106 =
2018-05-25 13:51 METAR KMPV 251751Z AUTO 29007KT 260V340 10SM BKN075 OVC090 24/12 A2982 RMK AO2
                 SLP098 T02390117 10267 20206 58016 =
2018-05-25 12:51 METAR KMPV 251651Z AUTO 26009G20KT 10SM SCT070 26/11 A2984 RMK AO2 PK WND
                 29028/1611 SLP103 T02560106 =
2018-05-25 11:51 METAR KMPV 251551Z AUTO 29016G27KT 10SM CLR 26/11 A2986 RMK AO2 PK WND
                 29031/1538 SLP109 T02560106 =
2018-05-25 10:51 METAR KMPV 251451Z AUTO 28011G27KT 250V310 10SM CLR 25/11 A2987 RMK AO2 PK WND
                 26030/1440 SLP115 T02500106 58016 =
2018-05-25 09:51 METAR KMPV 251351Z AUTO 28012G20KT 10SM CLR 23/09 A2990 RMK AO2 SLP123 T02330094
                 =
2018-05-25 08:51 METAR KMPV 251251Z AUTO 26008KT 10SM BKN080 OVC095 21/09 A2992 RMK AO2 SLP130
                 T02110089 =
2018-05-25 07:51 METAR KMPV 251151Z AUTO 26009G14KT 10SM CLR 20/08 A2992 RMK AO2 SLP131 T02000083
                 10200 20078 58007 =
2018-05-25 06:51 METAR KMPV 251051Z AUTO 29006KT 10SM CLR 18/08 A2994 RMK AO2 SLP135 T01830083 =
2018-05-25 05:51 METAR KMPV 250951Z AUTO 30005KT 10SM CLR 17/08 A2994 RMK AO2 SLP136 T01720078 =
2018-05-25 04:51 METAR KMPV 250851Z AUTO VRB05KT 10SM CLR 17/07 A2994 RMK AO2 SLP137 T01720072
                 56010 =
2018-05-25 03:51 METAR KMPV 250751Z AUTO 28005KT 10SM CLR 17/07 A2994 RMK AO2 SLP137 T01670072 =
2018-05-25 02:51 METAR KMPV 250651Z AUTO 06003KT 10SM CLR 09/07 A2996 RMK AO2 SLP146 T00890067 =

Support USWX by starting your Amazon purchase here.